createdAt,value
2022-08-17T00:00:57.162Z,100346.79
2022-08-17T00:03:39.582Z,100347.13
2022-08-17T00:06:17.032Z,100344.23
2022-08-17T00:08:51.288Z,100349.00
2022-08-17T00:11:28.976Z,100351.27
2022-08-17T00:14:21.035Z,100350.19
2022-08-17T00:16:58.213Z,100358.73
2022-08-17T00:19:28.838Z,100365.56
2022-08-17T00:22:30.824Z,100366.66
2022-08-17T00:24:53.093Z,100369.60
2022-08-17T00:27:24.268Z,100370.21
2022-08-17T00:29:54.407Z,100372.17
2022-08-17T00:33:15.711Z,100368.48
2022-08-17T00:35:29.969Z,100365.92
2022-08-17T00:37:58.772Z,100369.36
2022-08-17T00:40:40.739Z,100365.35
2022-08-17T00:43:20.937Z,100362.68
2022-08-17T00:45:52.569Z,100361.55
2022-08-17T00:48:29.809Z,100359.05
2022-08-17T00:51:30.423Z,100359.10
2022-08-17T00:54:14.043Z,100358.75
2022-08-17T00:57:14.108Z,100357.97
2022-08-17T01:00:03.256Z,100360.86
2022-08-17T01:02:42.701Z,100359.43
2022-08-17T01:05:20.850Z,100358.94
2022-08-17T01:07:53.857Z,100358.05
2022-08-17T01:10:58.482Z,100355.45
2022-08-17T01:13:44.137Z,100350.33
2022-08-17T01:16:29.294Z,100354.21
2022-08-17T01:19:04.167Z,100353.33
2022-08-17T01:21:53.495Z,100351.52
2022-08-17T01:24:24.934Z,100354.13
2022-08-17T01:26:57.731Z,100355.77
2022-08-17T01:29:31.036Z,100355.90
2022-08-17T01:32:06.961Z,100354.13
2022-08-17T01:34:43.383Z,100354.86
2022-08-17T01:37:33.479Z,100351.08
2022-08-17T01:40:38.621Z,100351.27
2022-08-17T01:43:22.583Z,100351.42
2022-08-17T01:46:02.654Z,100352.34
2022-08-17T01:48:41.622Z,100349.29
2022-08-17T01:51:14.921Z,100351.70
2022-08-17T01:53:53.485Z,100348.23
2022-08-17T01:56:29.070Z,100349.09
2022-08-17T01:59:01.227Z,100345.75
2022-08-17T02:01:35.352Z,100350.95
2022-08-17T02:04:08.800Z,100350.80
2022-08-17T02:06:52.930Z,100349.48
2022-08-17T02:09:30.127Z,100348.43
2022-08-17T02:12:37.304Z,100344.80
2022-08-17T02:14:57.740Z,100345.04
2022-08-17T02:17:30.379Z,100345.02
2022-08-17T02:20:02.442Z,100341.05
2022-08-17T02:22:36.484Z,100344.77
2022-08-17T02:25:11.506Z,100336.85
2022-08-17T02:27:40.604Z,100338.05
2022-08-17T02:30:49.868Z,100332.31
2022-08-17T02:33:04.242Z,100331.48
2022-08-17T02:35:38.876Z,100329.98
2022-08-17T02:38:07.952Z,100334.61
2022-08-17T02:40:37.612Z,100335.79
2022-08-17T02:43:09.680Z,100338.94
2022-08-17T02:45:38.477Z,100339.16
2022-08-17T02:48:07.471Z,100341.23
2022-08-17T02:50:37.233Z,100339.50
2022-08-17T02:53:06.252Z,100337.37
2022-08-17T02:55:38.562Z,100338.64
2022-08-17T02:58:08.857Z,100338.80
2022-08-17T03:00:41.948Z,100340.41
2022-08-17T03:03:14.062Z,100345.41
2022-08-17T03:05:43.383Z,100346.73
2022-08-17T03:08:13.364Z,100345.04
2022-08-17T03:10:44.406Z,100342.73
2022-08-17T03:13:15.915Z,100342.22
2022-08-17T03:15:46.473Z,100346.96
2022-08-17T03:18:25.050Z,100346.77
2022-08-17T03:20:59.079Z,100348.31
2022-08-17T03:23:30.345Z,100348.90
2022-08-17T03:26:01.190Z,100348.80
2022-08-17T03:28:31.209Z,100354.80
2022-08-17T03:31:00.319Z,100358.48
2022-08-17T03:33:29.669Z,100355.70
2022-08-17T03:35:59.116Z,100357.19
2022-08-17T03:38:28.413Z,100360.18
2022-08-17T03:40:59.754Z,100357.20
2022-08-17T03:43:32.228Z,100361.17
2022-08-17T03:46:27.237Z,100365.46
2022-08-17T03:49:16.756Z,100365.45
2022-08-17T03:52:04.091Z,100368.39
2022-08-17T03:54:51.613Z,100370.36
2022-08-17T03:57:20.587Z,100372.06
2022-08-17T03:59:49.872Z,100372.94
2022-08-17T04:02:29.420Z,100374.58
2022-08-17T04:04:59.186Z,100377.53
2022-08-17T04:07:30.665Z,100376.27
2022-08-17T04:10:00.782Z,100374.92
2022-08-17T04:12:42.467Z,100383.31
2022-08-17T04:15:12.934Z,100383.27
2022-08-17T04:17:41.516Z,100385.05
2022-08-17T04:20:12.927Z,100387.48
2022-08-17T04:23:00.062Z,100391.54
2022-08-17T04:25:31.277Z,100395.13
2022-08-17T04:28:01.488Z,100394.80
2022-08-17T04:30:34.069Z,100395.92
2022-08-17T04:33:10.781Z,100398.36
2022-08-17T04:35:46.058Z,100400.06
2022-08-17T04:38:18.062Z,100400.60
2022-08-17T04:41:05.517Z,100401.14
2022-08-17T04:43:36.677Z,100401.85
2022-08-17T04:46:15.091Z,100404.05
2022-08-17T04:48:48.898Z,100403.41
2022-08-17T04:51:25.733Z,100401.44
2022-08-17T04:54:01.456Z,100406.61
2022-08-17T04:56:32.219Z,100411.86
2022-08-17T04:59:05.523Z,100403.35
2022-08-17T05:01:36.848Z,100404.54
2022-08-17T05:04:33.283Z,100406.96
2022-08-17T05:07:00.393Z,100410.59
2022-08-17T05:09:29.720Z,100408.92
2022-08-17T05:12:02.693Z,100409.36
2022-08-17T05:14:32.463Z,100410.42
2022-08-17T05:17:04.160Z,100407.09
2022-08-17T05:19:38.451Z,100410.50
2022-08-17T05:22:07.293Z,100412.38
2022-08-17T05:24:41.251Z,100415.85
2022-08-17T05:27:18.887Z,100414.98
2022-08-17T05:29:49.261Z,100413.63
2022-08-17T05:32:39.247Z,100420.83
2022-08-17T05:35:09.823Z,100419.73
2022-08-17T05:37:40.505Z,100420.35
2022-08-17T05:40:11.526Z,100417.72
2022-08-17T05:42:41.868Z,100421.50
2022-08-17T05:45:12.242Z,100419.50
2022-08-17T05:47:45.512Z,100416.55
2022-08-17T05:50:27.033Z,100423.58
2022-08-17T05:53:37.450Z,100425.14
2022-08-17T05:56:28.007Z,100421.17
2022-08-17T05:59:24.829Z,100419.14
2022-08-17T06:02:48.221Z,100421.11
2022-08-17T06:05:51.969Z,100420.45
2022-08-17T06:08:33.863Z,100421.27
2022-08-17T06:11:40.758Z,100423.86
2022-08-17T06:14:27.561Z,100431.34
2022-08-17T06:17:02.703Z,100426.48
2022-08-17T06:19:31.931Z,100427.95
2022-08-17T06:22:03.514Z,100425.94
2022-08-17T06:24:43.315Z,100429.20
2022-08-17T06:27:27.137Z,100429.42
2022-08-17T06:30:59.174Z,100434.42
2022-08-17T06:33:24.881Z,100444.09
2022-08-17T06:36:02.798Z,100446.20
2022-08-17T06:39:08.291Z,100443.55
2022-08-17T06:41:50.997Z,100443.27
2022-08-17T06:44:50.269Z,100447.36
2022-08-17T06:47:48.999Z,100446.34
2022-08-17T06:50:27.632Z,100446.59
2022-08-17T06:53:31.960Z,100448.35
2022-08-17T06:56:14.538Z,100452.66
2022-08-17T06:58:45.643Z,100455.09
2022-08-17T07:01:31.619Z,100455.48
2022-08-17T07:04:18.389Z,100457.17
2022-08-17T07:07:27.538Z,100456.10
2022-08-17T07:10:02.864Z,100454.81
2022-08-17T07:12:40.251Z,100449.29
2022-08-17T07:15:26.673Z,100452.23
2022-08-17T07:17:57.914Z,100454.34
2022-08-17T07:20:28.889Z,100458.67
2022-08-17T07:23:04.970Z,100454.42
2022-08-17T07:25:35.331Z,100457.45
2022-08-17T07:28:07.991Z,100458.11
2022-08-17T07:30:45.702Z,100462.13
2022-08-17T07:33:28.422Z,100464.84
2022-08-17T07:35:59.564Z,100467.42
2022-08-17T07:38:32.737Z,100469.86
2022-08-17T07:41:11.469Z,100472.86
2022-08-17T07:43:41.009Z,100473.17
2022-08-17T07:46:41.229Z,100474.20
2022-08-17T07:49:10.205Z,100477.39
2022-08-17T07:51:48.857Z,100476.86
2022-08-17T07:54:23.390Z,100480.04
2022-08-17T07:57:03.776Z,100476.23
2022-08-17T07:59:35.013Z,100472.64
2022-08-17T08:02:17.804Z,100473.93
2022-08-17T08:05:01.481Z,100472.83
2022-08-17T08:08:04.023Z,100470.54
2022-08-17T08:10:42.748Z,100465.77
2022-08-17T08:13:22.678Z,100464.72
2022-08-17T08:15:55.703Z,100467.86
2022-08-17T08:18:54.369Z,100458.54
2022-08-17T08:21:52.388Z,100456.33
2022-08-17T08:24:41.592Z,100463.11
2022-08-17T08:27:30.547Z,100465.94
2022-08-17T08:30:22.262Z,100463.66
2022-08-17T08:33:24.144Z,100462.44
2022-08-17T08:36:59.267Z,100463.23
2022-08-17T08:39:23.072Z,100468.20
2022-08-17T08:42:08.553Z,100469.27
2022-08-17T08:45:04.446Z,100468.58
2022-08-17T08:48:22.756Z,100466.20
2022-08-17T08:51:20.442Z,100464.00
2022-08-17T08:54:09.337Z,100464.11
2022-08-17T08:57:22.271Z,100459.02
2022-08-17T09:00:07.236Z,100456.66
2022-08-17T09:02:58.142Z,100454.92
2022-08-17T09:05:51.408Z,100450.70
2022-08-17T09:08:30.649Z,100449.85
2022-08-17T09:11:11.535Z,100450.77
2022-08-17T09:14:00.574Z,100452.66
2022-08-17T09:16:53.221Z,100454.98
2022-08-17T09:19:49.366Z,100455.61
2022-08-17T09:22:42.950Z,100449.11
2022-08-17T09:25:23.190Z,100450.45
2022-08-17T09:28:00.764Z,100448.62
2022-08-17T09:30:45.779Z,100450.91
2022-08-17T09:33:28.257Z,100447.45
2022-08-17T09:36:04.947Z,100444.17
2022-08-17T09:38:52.812Z,100440.23
2022-08-17T09:41:35.781Z,100441.58
2022-08-17T09:44:23.634Z,100441.09
2022-08-17T09:47:01.224Z,100434.45
2022-08-17T09:49:45.360Z,100429.29
2022-08-17T09:52:23.804Z,100426.45
2022-08-17T09:54:56.559Z,100423.93
2022-08-17T09:57:44.635Z,100423.40
2022-08-17T10:00:25.016Z,100428.75
2022-08-17T10:03:22.520Z,100430.90
2022-08-17T10:06:09.637Z,100430.86
2022-08-17T10:09:08.752Z,100431.81
2022-08-17T10:12:10.608Z,100436.77
2022-08-17T10:14:56.340Z,100433.12
2022-08-17T10:17:26.530Z,100438.23
2022-08-17T10:20:22.028Z,100437.25
2022-08-17T10:23:40.202Z,100439.57
2022-08-17T10:26:18.598Z,100433.73
2022-08-17T10:28:57.668Z,100435.30
2022-08-17T10:31:50.998Z,100434.65
2022-08-17T10:35:11.929Z,100431.94
2022-08-17T10:37:59.531Z,100438.59
2022-08-17T10:40:37.006Z,100442.48
2022-08-17T10:43:38.274Z,100442.36
2022-08-17T10:46:30.340Z,100443.41
2022-08-17T10:49:18.879Z,100445.48
2022-08-17T10:51:54.663Z,100445.66
2022-08-17T10:54:25.864Z,100446.20
2022-08-17T10:56:58.465Z,100447.64
2022-08-17T10:59:36.172Z,100452.73
2022-08-17T11:02:04.716Z,100451.85
2022-08-17T11:05:09.108Z,100442.52
2022-08-17T11:08:06.675Z,100445.07
2022-08-17T11:11:23.468Z,100444.63
2022-08-17T11:13:54.801Z,100441.06
2022-08-17T11:16:48.040Z,100441.27
2022-08-17T11:19:47.952Z,100441.59
2022-08-17T11:22:40.759Z,100440.73
2022-08-17T11:25:19.668Z,100437.41
2022-08-17T11:28:05.808Z,100437.49
2022-08-17T11:30:53.811Z,100436.89
2022-08-17T11:33:36.598Z,100435.83
2022-08-17T11:36:22.967Z,100430.30
2022-08-17T11:38:51.412Z,100425.61
2022-08-17T11:41:42.293Z,100420.35
2022-08-17T11:44:18.010Z,100419.34
2022-08-17T11:47:39.155Z,100415.54
2022-08-17T11:50:50.493Z,100414.66
2022-08-17T11:53:37.887Z,100410.69
2022-08-17T11:56:32.033Z,100408.58
2022-08-17T11:59:03.514Z,100412.42
2022-08-17T12:01:47.325Z,100414.63
2022-08-17T12:04:26.596Z,100414.08
2022-08-17T12:07:22.006Z,100413.77
2022-08-17T12:09:54.930Z,100408.45
2022-08-17T12:12:37.187Z,100408.69
2022-08-17T12:15:11.046Z,100401.52
2022-08-17T12:17:43.041Z,100404.30
2022-08-17T12:20:18.879Z,100407.61
2022-08-17T12:23:01.473Z,100406.63
2022-08-17T12:25:41.919Z,100402.98
2022-08-17T12:28:28.901Z,100399.98
2022-08-17T12:31:09.174Z,100398.45
2022-08-17T12:33:44.845Z,100401.27
2022-08-17T12:36:17.895Z,100404.93
2022-08-17T12:39:14.228Z,100402.56
2022-08-17T12:41:50.307Z,100413.81
2022-08-17T12:44:25.830Z,100414.46
2022-08-17T12:47:22.403Z,100417.30
2022-08-17T12:49:55.485Z,100413.71
2022-08-17T12:52:28.410Z,100414.73
2022-08-17T12:55:07.238Z,100412.42
2022-08-17T12:57:38.759Z,100408.88
2022-08-17T13:00:26.667Z,100408.52
2022-08-17T13:03:01.161Z,100403.88
2022-08-17T13:05:36.353Z,100401.52
2022-08-17T13:08:15.564Z,100396.80
2022-08-17T13:11:00.256Z,100393.54
2022-08-17T13:13:34.381Z,100388.09
2022-08-17T13:16:20.817Z,100385.85
2022-08-17T13:19:08.243Z,100382.04
2022-08-17T13:21:45.340Z,100387.52
2022-08-17T13:24:18.182Z,100385.18
2022-08-17T13:26:50.649Z,100386.56
2022-08-17T13:29:28.931Z,100384.30
2022-08-17T13:32:20.304Z,100381.91
2022-08-17T13:35:12.132Z,100378.91
2022-08-17T13:38:07.977Z,100380.38
2022-08-17T13:40:45.628Z,100378.41
2022-08-17T13:43:38.415Z,100382.16
2022-08-17T13:46:18.926Z,100374.23
2022-08-17T13:49:00.484Z,100372.61
2022-08-17T13:51:46.574Z,100372.64
2022-08-17T13:54:21.175Z,100371.71
2022-08-17T13:57:03.922Z,100370.60
2022-08-17T13:59:53.857Z,100368.83
2022-08-17T14:02:28.737Z,100367.55
2022-08-17T14:05:00.353Z,100370.83
2022-08-17T14:07:35.979Z,100371.08
2022-08-17T14:10:08.106Z,100369.22
2022-08-17T14:12:41.515Z,100371.42
2022-08-17T14:15:15.532Z,100373.52
2022-08-17T14:17:44.590Z,100375.26
2022-08-17T14:20:15.642Z,100372.96
2022-08-17T14:22:49.713Z,100369.52
2022-08-17T14:25:27.930Z,100365.27
2022-08-17T14:27:56.783Z,100364.64
2022-08-17T14:30:30.240Z,100367.27
2022-08-17T14:33:02.394Z,100368.29
2022-08-17T14:35:32.236Z,100370.79
2022-08-17T14:38:06.163Z,100373.50
2022-08-17T14:40:37.159Z,100371.11
2022-08-17T14:43:06.998Z,100372.96
2022-08-17T14:45:35.670Z,100369.61
2022-08-17T14:48:10.091Z,100375.38
2022-08-17T14:50:43.357Z,100372.95
2022-08-17T14:53:16.520Z,100370.63
2022-08-17T14:55:48.740Z,100375.70
2022-08-17T14:58:19.700Z,100374.08
2022-08-17T15:00:53.310Z,100370.59
2022-08-17T15:03:25.373Z,100366.60
2022-08-17T15:05:56.532Z,100368.33
2022-08-17T15:08:27.633Z,100368.48
2022-08-17T15:10:58.394Z,100377.13
2022-08-17T15:13:29.950Z,100371.50
2022-08-17T15:16:01.505Z,100370.64
2022-08-17T15:18:33.206Z,100368.09
2022-08-17T15:21:06.289Z,100372.27
2022-08-17T15:23:37.208Z,100372.62
2022-08-17T15:26:08.738Z,100374.46
2022-08-17T15:28:40.501Z,100371.92
2022-08-17T15:31:11.231Z,100373.53
2022-08-17T15:33:42.034Z,100372.27
2022-08-17T15:36:11.883Z,100365.78
2022-08-17T15:38:44.552Z,100370.27
2022-08-17T15:41:18.524Z,100370.36
2022-08-17T15:43:50.642Z,100365.27
2022-08-17T15:46:24.560Z,100372.13
2022-08-17T15:49:00.302Z,100364.16
2022-08-17T15:51:34.503Z,100367.27
2022-08-17T15:54:18.671Z,100364.05
2022-08-17T15:56:55.312Z,100367.48
2022-08-17T15:59:26.496Z,100363.77
2022-08-17T16:03:15.925Z,100364.11
2022-08-17T16:04:53.051Z,100364.73
2022-08-17T16:07:26.830Z,100370.02
2022-08-17T16:09:58.388Z,100366.67
2022-08-17T16:12:29.415Z,100360.63
2022-08-17T16:15:00.292Z,100359.36
2022-08-17T16:17:39.830Z,100363.19
2022-08-17T16:20:20.713Z,100363.11
2022-08-17T16:22:54.475Z,100361.61
2022-08-17T16:25:52.460Z,100362.89
2022-08-17T16:28:35.804Z,100368.29
2022-08-17T16:31:08.009Z,100369.38
2022-08-17T16:33:39.660Z,100369.81
2022-08-17T16:36:09.024Z,100369.76
2022-08-17T16:38:39.125Z,100373.08
2022-08-17T16:41:07.567Z,100376.73
2022-08-17T16:43:36.177Z,100376.96
2022-08-17T16:46:06.236Z,100375.50
2022-08-17T16:48:36.261Z,100377.44
2022-08-17T16:51:06.374Z,100376.15
2022-08-17T16:53:36.919Z,100383.48
2022-08-17T16:56:09.072Z,100382.10
2022-08-17T16:58:42.985Z,100381.52
2022-08-17T17:01:15.963Z,100380.07
2022-08-17T17:03:53.122Z,100378.80
2022-08-17T17:07:01.712Z,100380.79
2022-08-17T17:09:38.479Z,100378.84
2022-08-17T17:12:35.059Z,100379.85
2022-08-17T17:15:11.256Z,100384.29
2022-08-17T17:17:50.598Z,100383.58
2022-08-17T17:20:36.581Z,100389.34
2022-08-17T17:23:26.207Z,100387.83
2022-08-17T17:26:33.049Z,100388.80
2022-08-17T17:29:10.874Z,100391.50
2022-08-17T17:31:58.691Z,100390.98
2022-08-17T17:34:35.561Z,100390.60
2022-08-17T17:37:15.565Z,100388.59
2022-08-17T17:39:59.717Z,100381.35
2022-08-17T17:42:33.728Z,100379.00
2022-08-17T17:45:23.574Z,100383.55
2022-08-17T17:47:54.796Z,100385.22
2022-08-17T17:50:38.848Z,100381.86
2022-08-17T17:53:41.870Z,100380.49
2022-08-17T17:56:43.145Z,100382.81
2022-08-17T17:59:41.811Z,100379.94
2022-08-17T18:02:56.579Z,100385.66
2022-08-17T18:05:37.386Z,100397.02
2022-08-17T18:08:12.755Z,100402.29
2022-08-17T18:11:05.131Z,100405.27
2022-08-17T18:14:18.612Z,100415.20
2022-08-17T18:16:54.415Z,100409.85
2022-08-17T18:19:28.339Z,100412.49
2022-08-17T18:22:14.820Z,100413.48
2022-08-17T18:24:56.737Z,100412.20
2022-08-17T18:27:53.458Z,100413.89
2022-08-17T18:30:23.526Z,100405.84
2022-08-17T18:32:55.132Z,100410.68
2022-08-17T18:35:31.746Z,100407.46
2022-08-17T18:38:35.396Z,100406.99
2022-08-17T18:41:30.603Z,100408.80
2022-08-17T18:44:29.303Z,100408.27
2022-08-17T18:47:16.701Z,100405.54
2022-08-17T18:50:01.705Z,100404.08
2022-08-17T18:52:35.504Z,100405.96
2022-08-17T18:55:15.358Z,100408.89
2022-08-17T18:57:58.062Z,100413.73
2022-08-17T19:00:41.970Z,100417.23
2022-08-17T19:03:17.951Z,100421.64
2022-08-17T19:05:57.271Z,100421.54
2022-08-17T19:08:30.934Z,100418.35
2022-08-17T19:11:11.765Z,100417.19
2022-08-17T19:13:56.684Z,100419.75
2022-08-17T19:16:34.145Z,100423.30
2022-08-17T19:19:33.844Z,100434.34
2022-08-17T19:22:31.024Z,100434.70
2022-08-17T19:25:17.446Z,100434.56
2022-08-17T19:27:57.829Z,100441.09
2022-08-17T19:30:30.957Z,100440.30
2022-08-17T19:33:05.807Z,100435.20
2022-08-17T19:35:55.494Z,100433.88
2022-08-17T19:38:32.021Z,100437.67
2022-08-17T19:41:09.707Z,100438.00
2022-08-17T19:44:21.914Z,100439.11
2022-08-17T19:47:12.291Z,100448.66
2022-08-17T19:50:12.509Z,100458.15
2022-08-17T19:52:49.373Z,100458.92
2022-08-17T19:55:46.833Z,100462.48
2022-08-17T19:58:36.464Z,100462.94
2022-08-17T20:01:33.969Z,100463.54
2022-08-17T20:04:25.454Z,100469.60
2022-08-17T20:07:33.435Z,100466.23
2022-08-17T20:10:29.981Z,100466.50
2022-08-17T20:13:18.065Z,100468.81
2022-08-17T20:16:10.019Z,100472.39
2022-08-17T20:18:54.432Z,100468.10
2022-08-17T20:21:54.185Z,100469.79
2022-08-17T20:24:40.058Z,100467.75
2022-08-17T20:27:20.734Z,100466.89
2022-08-17T20:29:56.991Z,100462.24
2022-08-17T20:32:55.362Z,100466.20
2022-08-17T20:35:31.834Z,100473.48
2022-08-17T20:38:08.600Z,100466.63
2022-08-17T20:41:04.356Z,100452.98
2022-08-17T20:43:41.756Z,100454.38
2022-08-17T20:46:35.628Z,100449.84
2022-08-17T20:49:50.979Z,100449.91
2022-08-17T20:52:48.738Z,100450.70
2022-08-17T20:55:51.708Z,100447.50
2022-08-17T20:58:33.949Z,100449.35
2022-08-17T21:01:28.979Z,100449.73
2022-08-17T21:03:59.865Z,100449.09
2022-08-17T21:06:32.115Z,100450.40
2022-08-17T21:09:13.035Z,100449.98
2022-08-17T21:12:04.584Z,100443.38
2022-08-17T21:15:07.634Z,100444.05
2022-08-17T21:17:50.068Z,100450.89
2022-08-17T21:20:52.751Z,100453.70
2022-08-17T21:23:49.413Z,100452.04
2022-08-17T21:27:03.218Z,100455.04
2022-08-17T21:29:40.342Z,100456.86
2022-08-17T21:32:18.492Z,100454.31
2022-08-17T21:35:09.525Z,100455.15
2022-08-17T21:37:48.514Z,100458.95
2022-08-17T21:40:29.266Z,100464.66
2022-08-17T21:43:24.747Z,100463.27
2022-08-17T21:46:04.660Z,100463.05
2022-08-17T21:48:45.363Z,100462.30
2022-08-17T21:51:29.024Z,100466.15
2022-08-17T21:54:07.523Z,100467.44
2022-08-17T21:56:46.757Z,100471.11
2022-08-17T21:59:35.975Z,100470.77
2022-08-17T22:02:31.028Z,100470.39
2022-08-17T22:05:08.577Z,100467.40
2022-08-17T22:07:49.072Z,100464.92
2022-08-17T22:10:48.633Z,100464.07
2022-08-17T22:13:29.763Z,100461.05
2022-08-17T22:16:28.746Z,100461.77
2022-08-17T22:19:05.849Z,100459.08
2022-08-17T22:21:36.793Z,100456.59
2022-08-17T22:24:25.959Z,100450.63
2022-08-17T22:27:06.125Z,100456.08
2022-08-17T22:29:58.332Z,100455.45
2022-08-17T22:32:38.519Z,100453.05
2022-08-17T22:35:18.433Z,100453.69
2022-08-17T22:37:51.874Z,100455.19
2022-08-17T22:40:35.817Z,100461.33
2022-08-17T22:43:06.897Z,100465.45
2022-08-17T22:45:45.567Z,100471.64
2022-08-17T22:48:27.258Z,100475.58
2022-08-17T22:51:28.501Z,100476.93
2022-08-17T22:54:40.690Z,100479.62
2022-08-17T22:57:39.251Z,100482.48
2022-08-17T23:00:34.799Z,100488.52
2022-08-17T23:03:20.906Z,100493.41
2022-08-17T23:06:11.303Z,100493.78
2022-08-17T23:09:00.987Z,100494.52
2022-08-17T23:11:50.882Z,100496.17
2022-08-17T23:14:25.565Z,100492.15
2022-08-17T23:16:59.518Z,100486.73
2022-08-17T23:19:33.541Z,100486.70
2022-08-17T23:22:08.769Z,100484.88
2022-08-17T23:24:50.080Z,100482.75
2022-08-17T23:27:24.611Z,100486.25
2022-08-17T23:29:55.706Z,100491.27
2022-08-17T23:32:29.141Z,100491.56
2022-08-17T23:35:02.702Z,100495.17
2022-08-17T23:37:36.493Z,100490.95
2022-08-17T23:40:09.950Z,100493.16
2022-08-17T23:42:47.294Z,100493.75
2022-08-17T23:45:18.461Z,100492.73
2022-08-17T23:47:52.638Z,100486.23
2022-08-17T23:50:29.912Z,100481.73
2022-08-17T23:53:01.153Z,100487.77
2022-08-17T23:55:36.377Z,100490.40
2022-08-17T23:58:08.609Z,100490.40
